sensor_id;sensor_type;location;lat;lon;timestamp;P1;durP1;ratioP1;P2;durP2;ratioP2
18338;SDS011;9295;44.484;11.240;2023-04-05T00:01:13;5.83;;;4.40;;
18338;SDS011;9295;44.484;11.240;2023-04-05T00:03:44;6.50;;;4.20;;
18338;SDS011;9295;44.484;11.240;2023-04-05T00:06:14;8.17;;;4.87;;
18338;SDS011;9295;44.484;11.240;2023-04-05T00:08:42;7.60;;;4.33;;
18338;SDS011;9295;44.484;11.240;2023-04-05T00:11:16;7.40;;;4.70;;
18338;SDS011;9295;44.484;11.240;2023-04-05T00:13:46;8.43;;;4.80;;
18338;SDS011;9295;44.484;11.240;2023-04-05T00:16:14;9.43;;;4.73;;
18338;SDS011;9295;44.484;11.240;2023-04-05T00:18:43;6.23;;;3.90;;
18338;SDS011;9295;44.484;11.240;2023-04-05T00:21:15;8.70;;;4.13;;
18338;SDS011;9295;44.484;11.240;2023-04-05T00:23:44;6.27;;;4.30;;
18338;SDS011;9295;44.484;11.240;2023-04-05T00:26:12;9.07;;;4.50;;
18338;SDS011;9295;44.484;11.240;2023-04-05T00:28:47;7.90;;;4.93;;
18338;SDS011;9295;44.484;11.240;2023-04-05T00:31:16;6.77;;;4.23;;
18338;SDS011;9295;44.484;11.240;2023-04-05T00:33:45;6.83;;;4.87;;
18338;SDS011;9295;44.484;11.240;2023-04-05T00:36:15;8.17;;;4.93;;
18338;SDS011;9295;44.484;11.240;2023-04-05T00:38:45;6.70;;;4.27;;
18338;SDS011;9295;44.484;11.240;2023-04-05T00:41:15;7.80;;;4.60;;
18338;SDS011;9295;44.484;11.240;2023-04-05T00:43:43;6.40;;;4.33;;
18338;SDS011;9295;44.484;11.240;2023-04-05T00:46:14;7.83;;;4.50;;
18338;SDS011;9295;44.484;11.240;2023-04-05T00:48:43;7.63;;;4.27;;
18338;SDS011;9295;44.484;11.240;2023-04-05T00:51:12;6.50;;;4.17;;
18338;SDS011;9295;44.484;11.240;2023-04-05T00:53:41;7.93;;;4.03;;
18338;SDS011;9295;44.484;11.240;2023-04-05T00:56:10;7.00;;;4.30;;
18338;SDS011;9295;44.484;11.240;2023-04-05T00:58:40;8.97;;;4.60;;
18338;SDS011;9295;44.484;11.240;2023-04-05T01:01:09;9.20;;;4.93;;
18338;SDS011;9295;44.484;11.240;2023-04-05T01:03:44;8.37;;;5.63;;
18338;SDS011;9295;44.484;11.240;2023-04-05T01:06:23;8.03;;;5.03;;
18338;SDS011;9295;44.484;11.240;2023-04-05T01:09:03;8.27;;;5.13;;
18338;SDS011;9295;44.484;11.240;2023-04-05T01:11:37;13.50;;;5.73;;
18338;SDS011;9295;44.484;11.240;2023-04-05T01:14:07;10.47;;;5.03;;
18338;SDS011;9295;44.484;11.240;2023-04-05T01:16:35;8.27;;;5.13;;
18338;SDS011;9295;44.484;11.240;2023-04-05T01:19:05;9.00;;;5.40;;
18338;SDS011;9295;44.484;11.240;2023-04-05T01:21:50;10.73;;;5.03;;
18338;SDS011;9295;44.484;11.240;2023-04-05T01:24:43;8.90;;;5.07;;
18338;SDS011;9295;44.484;11.240;2023-04-05T01:27:30;8.20;;;5.03;;
18338;SDS011;9295;44.484;11.240;2023-04-05T01:30:15;9.97;;;4.77;;
18338;SDS011;9295;44.484;11.240;2023-04-05T01:32:49;9.40;;;4.60;;
18338;SDS011;9295;44.484;11.240;2023-04-05T01:35:33;6.23;;;4.20;;
18338;SDS011;9295;44.484;11.240;2023-04-05T01:38:08;23.93;;;4.40;;
18338;SDS011;9295;44.484;11.240;2023-04-05T01:40:40;6.17;;;4.03;;
18338;SDS011;9295;44.484;11.240;2023-04-05T01:43:11;6.83;;;4.20;;
18338;SDS011;9295;44.484;11.240;2023-04-05T01:45:42;7.77;;;4.43;;
18338;SDS011;9295;44.484;11.240;2023-04-05T01:48:11;10.50;;;5.00;;
18338;SDS011;9295;44.484;11.240;2023-04-05T01:50:40;5.47;;;3.83;;
18338;SDS011;9295;44.484;11.240;2023-04-05T01:53:09;6.83;;;4.17;;
18338;SDS011;9295;44.484;11.240;2023-04-05T01:55:37;10.90;;;4.03;;
18338;SDS011;9295;44.484;11.240;2023-04-05T01:58:07;11.10;;;4.83;;
18338;SDS011;9295;44.484;11.240;2023-04-05T02:00:36;7.90;;;4.77;;
18338;SDS011;9295;44.484;11.240;2023-04-05T02:03:06;5.20;;;3.97;;
18338;SDS011;9295;44.484;11.240;2023-04-05T02:05:34;9.20;;;3.90;;
18338;SDS011;9295;44.484;11.240;2023-04-05T02:08:03;6.63;;;3.90;;
18338;SDS011;9295;44.484;11.240;2023-04-05T02:10:31;8.93;;;4.07;;
18338;SDS011;9295;44.484;11.240;2023-04-05T02:13:00;6.13;;;3.80;;
18338;SDS011;9295;44.484;11.240;2023-04-05T02:15:29;5.47;;;3.80;;
18338;SDS011;9295;44.484;11.240;2023-04-05T02:17:59;6.20;;;3.57;;
18338;SDS011;9295;44.484;11.240;2023-04-05T02:20:30;10.40;;;4.30;;
18338;SDS011;9295;44.484;11.240;2023-04-05T02:23:00;6.57;;;4.27;;
18338;SDS011;9295;44.484;11.240;2023-04-05T02:25:28;5.43;;;3.63;;
18338;SDS011;9295;44.484;11.240;2023-04-05T02:27:57;6.20;;;3.90;;
18338;SDS011;9295;44.484;11.240;2023-04-05T02:30:25;7.30;;;4.10;;
18338;SDS011;9295;44.484;11.240;2023-04-05T02:32:54;6.93;;;3.93;;
18338;SDS011;9295;44.484;11.240;2023-04-05T02:35:23;5.73;;;4.10;;
18338;SDS011;9295;44.484;11.240;2023-04-05T02:37:53;7.60;;;3.73;;
18338;SDS011;9295;44.484;11.240;2023-04-05T02:40:22;7.70;;;4.90;;
18338;SDS011;9295;44.484;11.240;2023-04-05T02:42:50;5.60;;;3.90;;
18338;SDS011;9295;44.484;11.240;2023-04-05T02:45:19;8.03;;;4.23;;
18338;SDS011;9295;44.484;11.240;2023-04-05T02:47:48;8.00;;;4.10;;
18338;SDS011;9295;44.484;11.240;2023-04-05T02:50:16;7.10;;;4.20;;
18338;SDS011;9295;44.484;11.240;2023-04-05T02:52:46;5.50;;;3.87;;
18338;SDS011;9295;44.484;11.240;2023-04-05T02:55:18;6.80;;;4.67;;
18338;SDS011;9295;44.484;11.240;2023-04-05T02:57:47;7.30;;;4.37;;
18338;SDS011;9295;44.484;11.240;2023-04-05T03:00:26;7.60;;;4.70;;
18338;SDS011;9295;44.484;11.240;2023-04-05T03:02:57;5.43;;;3.73;;
18338;SDS011;9295;44.484;11.240;2023-04-05T03:05:26;6.37;;;3.93;;
18338;SDS011;9295;44.484;11.240;2023-04-05T03:07:56;7.67;;;4.10;;
18338;SDS011;9295;44.484;11.240;2023-04-05T03:10:30;10.10;;;5.23;;
18338;SDS011;9295;44.484;11.240;2023-04-05T03:13:10;8.20;;;4.17;;
18338;SDS011;9295;44.484;11.240;2023-04-05T03:15:40;7.67;;;4.00;;
18338;SDS011;9295;44.484;11.240;2023-04-05T03:18:11;7.87;;;4.53;;
18338;SDS011;9295;44.484;11.240;2023-04-05T03:20:42;5.90;;;4.00;;
18338;SDS011;9295;44.484;11.240;2023-04-05T03:23:17;10.33;;;4.13;;
18338;SDS011;9295;44.484;11.240;2023-04-05T03:25:50;8.20;;;4.57;;
18338;SDS011;9295;44.484;11.240;2023-04-05T03:28:28;8.00;;;4.30;;
18338;SDS011;9295;44.484;11.240;2023-04-05T03:31:01;14.47;;;4.00;;
18338;SDS011;9295;44.484;11.240;2023-04-05T03:33:31;6.27;;;4.17;;
18338;SDS011;9295;44.484;11.240;2023-04-05T03:35:59;8.60;;;4.50;;
18338;SDS011;9295;44.484;11.240;2023-04-05T03:38:31;15.83;;;4.70;;
18338;SDS011;9295;44.484;11.240;2023-04-05T03:41:14;7.33;;;4.57;;
18338;SDS011;9295;44.484;11.240;2023-04-05T03:43:43;8.13;;;4.10;;
18338;SDS011;9295;44.484;11.240;2023-04-05T03:46:11;7.57;;;4.00;;
18338;SDS011;9295;44.484;11.240;2023-04-05T03:48:40;7.73;;;4.27;;
18338;SDS011;9295;44.484;11.240;2023-04-05T03:51:08;6.67;;;3.97;;
18338;SDS011;9295;44.484;11.240;2023-04-05T03:53:37;9.80;;;4.37;;
18338;SDS011;9295;44.484;11.240;2023-04-05T03:56:06;8.03;;;4.30;;
18338;SDS011;9295;44.484;11.240;2023-04-05T03:58:43;8.00;;;4.20;;
18338;SDS011;9295;44.484;11.240;2023-04-05T04:01:12;7.43;;;4.00;;
18338;SDS011;9295;44.484;11.240;2023-04-05T04:03:42;7.60;;;4.20;;
18338;SDS011;9295;44.484;11.240;2023-04-05T04:06:10;7.70;;;4.60;;
18338;SDS011;9295;44.484;11.240;2023-04-05T04:08:39;11.23;;;4.27;;
18338;SDS011;9295;44.484;11.240;2023-04-05T04:11:08;9.30;;;4.57;;
18338;SDS011;9295;44.484;11.240;2023-04-05T04:13:38;6.80;;;4.03;;
18338;SDS011;9295;44.484;11.240;2023-04-05T04:16:23;10.83;;;5.00;;
18338;SDS011;9295;44.484;11.240;2023-04-05T04:19:20;8.20;;;4.43;;
18338;SDS011;9295;44.484;11.240;2023-04-05T04:22:24;9.47;;;4.67;;
18338;SDS011;9295;44.484;11.240;2023-04-05T04:25:08;6.57;;;4.97;;
18338;SDS011;9295;44.484;11.240;2023-04-05T04:27:38;7.20;;;4.43;;
18338;SDS011;9295;44.484;11.240;2023-04-05T04:30:28;7.23;;;4.40;;
18338;SDS011;9295;44.484;11.240;2023-04-05T04:33:22;6.67;;;4.37;;
18338;SDS011;9295;44.484;11.240;2023-04-05T04:36:06;8.73;;;4.43;;
18338;SDS011;9295;44.484;11.240;2023-04-05T04:39:13;9.20;;;4.77;;
18338;SDS011;9295;44.484;11.240;2023-04-05T04:42:10;9.70;;;4.80;;
18338;SDS011;9295;44.484;11.240;2023-04-05T04:44:52;12.00;;;4.83;;
18338;SDS011;9295;44.484;11.240;2023-04-05T04:47:33;8.77;;;4.97;;
18338;SDS011;9295;44.484;11.240;2023-04-05T04:50:23;8.53;;;4.90;;
18338;SDS011;9295;44.484;11.240;2023-04-05T04:52:51;8.73;;;4.53;;
18338;SDS011;9295;44.484;11.240;2023-04-05T04:55:20;7.10;;;4.90;;
18338;SDS011;9295;44.484;11.240;2023-04-05T04:57:51;8.50;;;4.80;;
18338;SDS011;9295;44.484;11.240;2023-04-05T05:00:20;8.47;;;4.70;;
18338;SDS011;9295;44.484;11.240;2023-04-05T05:02:50;10.23;;;4.30;;
18338;SDS011;9295;44.484;11.240;2023-04-05T05:05:19;6.93;;;4.50;;
18338;SDS011;9295;44.484;11.240;2023-04-05T05:07:50;7.83;;;4.80;;
18338;SDS011;9295;44.484;11.240;2023-04-05T05:10:19;7.47;;;4.60;;
18338;SDS011;9295;44.484;11.240;2023-04-05T05:12:50;6.50;;;4.37;;
18338;SDS011;9295;44.484;11.240;2023-04-05T05:15:18;13.87;;;5.00;;
18338;SDS011;9295;44.484;11.240;2023-04-05T05:17:47;15.80;;;5.80;;
18338;SDS011;9295;44.484;11.240;2023-04-05T05:20:19;12.60;;;6.87;;
18338;SDS011;9295;44.484;11.240;2023-04-05T05:22:49;7.23;;;5.27;;
18338;SDS011;9295;44.484;11.240;2023-04-05T05:25:18;9.57;;;5.77;;
18338;SDS011;9295;44.484;11.240;2023-04-05T05:27:47;9.80;;;5.77;;
18338;SDS011;9295;44.484;11.240;2023-04-05T05:30:16;14.00;;;5.50;;
18338;SDS011;9295;44.484;11.240;2023-04-05T05:32:46;8.20;;;4.60;;
18338;SDS011;9295;44.484;11.240;2023-04-05T05:35:15;10.33;;;4.67;;
18338;SDS011;9295;44.484;11.240;2023-04-05T05:37:43;8.83;;;3.83;;
18338;SDS011;9295;44.484;11.240;2023-04-05T05:40:13;6.13;;;4.33;;
18338;SDS011;9295;44.484;11.240;2023-04-05T05:42:41;7.67;;;4.40;;
18338;SDS011;9295;44.484;11.240;2023-04-05T05:45:10;12.93;;;4.33;;
18338;SDS011;9295;44.484;11.240;2023-04-05T05:47:39;7.10;;;4.97;;
18338;SDS011;9295;44.484;11.240;2023-04-05T05:50:08;7.97;;;3.77;;
18338;SDS011;9295;44.484;11.240;2023-04-05T05:52:37;9.67;;;4.57;;
18338;SDS011;9295;44.484;11.240;2023-04-05T05:55:05;6.70;;;4.50;;
18338;SDS011;9295;44.484;11.240;2023-04-05T05:57:36;7.13;;;3.97;;
18338;SDS011;9295;44.484;11.240;2023-04-05T06:00:05;7.77;;;4.63;;
18338;SDS011;9295;44.484;11.240;2023-04-05T06:02:40;9.63;;;4.30;;
18338;SDS011;9295;44.484;11.240;2023-04-05T06:05:09;6.47;;;4.17;;
18338;SDS011;9295;44.484;11.240;2023-04-05T06:07:37;8.70;;;4.30;;
18338;SDS011;9295;44.484;11.240;2023-04-05T06:10:06;8.00;;;4.13;;
18338;SDS011;9295;44.484;11.240;2023-04-05T06:12:36;6.87;;;4.13;;
18338;SDS011;9295;44.484;11.240;2023-04-05T06:15:05;5.77;;;3.43;;
18338;SDS011;9295;44.484;11.240;2023-04-05T06:17:34;6.00;;;3.30;;
18338;SDS011;9295;44.484;11.240;2023-04-05T06:20:08;9.40;;;3.90;;
18338;SDS011;9295;44.484;11.240;2023-04-05T06:22:38;7.77;;;3.70;;
18338;SDS011;9295;44.484;11.240;2023-04-05T06:25:07;8.80;;;3.27;;
18338;SDS011;9295;44.484;11.240;2023-04-05T06:27:39;9.73;;;4.20;;
18338;SDS011;9295;44.484;11.240;2023-04-05T06:30:07;6.13;;;3.37;;
18338;SDS011;9295;44.484;11.240;2023-04-05T06:32:36;13.30;;;3.53;;
18338;SDS011;9295;44.484;11.240;2023-04-05T06:35:05;9.93;;;3.70;;
18338;SDS011;9295;44.484;11.240;2023-04-05T06:37:34;6.17;;;2.97;;
18338;SDS011;9295;44.484;11.240;2023-04-05T06:40:03;8.60;;;3.20;;
18338;SDS011;9295;44.484;11.240;2023-04-05T06:42:32;8.80;;;3.33;;
18338;SDS011;9295;44.484;11.240;2023-04-05T06:45:06;6.70;;;3.50;;
18338;SDS011;9295;44.484;11.240;2023-04-05T06:47:35;10.23;;;3.93;;
18338;SDS011;9295;44.484;11.240;2023-04-05T06:50:05;7.67;;;3.43;;
18338;SDS011;9295;44.484;11.240;2023-04-05T06:52:35;9.23;;;3.40;;
18338;SDS011;9295;44.484;11.240;2023-04-05T06:55:03;7.33;;;3.20;;
18338;SDS011;9295;44.484;11.240;2023-04-05T06:57:33;5.20;;;3.50;;
18338;SDS011;9295;44.484;11.240;2023-04-05T07:00:02;19.63;;;3.80;;
18338;SDS011;9295;44.484;11.240;2023-04-05T07:02:37;9.43;;;3.87;;
18338;SDS011;9295;44.484;11.240;2023-04-05T07:05:09;6.87;;;3.87;;
18338;SDS011;9295;44.484;11.240;2023-04-05T07:07:38;7.50;;;3.63;;
18338;SDS011;9295;44.484;11.240;2023-04-05T07:10:08;5.30;;;3.13;;
18338;SDS011;9295;44.484;11.240;2023-04-05T07:12:37;7.63;;;3.70;;
18338;SDS011;9295;44.484;11.240;2023-04-05T07:15:06;7.87;;;3.50;;
18338;SDS011;9295;44.484;11.240;2023-04-05T07:17:37;5.50;;;3.37;;
18338;SDS011;9295;44.484;11.240;2023-04-05T07:20:05;7.90;;;3.70;;
18338;SDS011;9295;44.484;11.240;2023-04-05T07:22:35;15.07;;;4.03;;
18338;SDS011;9295;44.484;11.240;2023-04-05T07:25:03;17.27;;;5.37;;
18338;SDS011;9295;44.484;11.240;2023-04-05T07:27:34;13.70;;;5.00;;
18338;SDS011;9295;44.484;11.240;2023-04-05T07:30:03;15.17;;;4.87;;
18338;SDS011;9295;44.484;11.240;2023-04-05T07:32:33;20.03;;;5.93;;
18338;SDS011;9295;44.484;11.240;2023-04-05T07:35:03;16.80;;;6.20;;
18338;SDS011;9295;44.484;11.240;2023-04-05T07:37:32;11.93;;;6.63;;
18338;SDS011;9295;44.484;11.240;2023-04-05T07:40:00;10.03;;;5.63;;
18338;SDS011;9295;44.484;11.240;2023-04-05T07:42:29;10.20;;;5.43;;
18338;SDS011;9295;44.484;11.240;2023-04-05T07:44:59;11.80;;;5.93;;
18338;SDS011;9295;44.484;11.240;2023-04-05T07:47:27;14.37;;;6.03;;
18338;SDS011;9295;44.484;11.240;2023-04-05T07:49:55;8.17;;;4.83;;
18338;SDS011;9295;44.484;11.240;2023-04-05T07:52:25;14.00;;;5.70;;
18338;SDS011;9295;44.484;11.240;2023-04-05T07:54:54;13.60;;;6.53;;
18338;SDS011;9295;44.484;11.240;2023-04-05T07:57:22;12.27;;;6.30;;
18338;SDS011;9295;44.484;11.240;2023-04-05T07:59:53;13.40;;;5.17;;
18338;SDS011;9295;44.484;11.240;2023-04-05T08:02:22;10.00;;;5.20;;
18338;SDS011;9295;44.484;11.240;2023-04-05T08:04:50;10.57;;;5.40;;
18338;SDS011;9295;44.484;11.240;2023-04-05T08:07:19;11.53;;;4.73;;
18338;SDS011;9295;44.484;11.240;2023-04-05T08:09:48;10.27;;;5.00;;
18338;SDS011;9295;44.484;11.240;2023-04-05T08:12:17;12.57;;;4.63;;
18338;SDS011;9295;44.484;11.240;2023-04-05T08:14:45;8.33;;;4.73;;
18338;SDS011;9295;44.484;11.240;2023-04-05T08:17:14;8.03;;;4.60;;
18338;SDS011;9295;44.484;11.240;2023-04-05T08:19:43;21.77;;;5.57;;
18338;SDS011;9295;44.484;11.240;2023-04-05T08:22:11;10.23;;;5.30;;
18338;SDS011;9295;44.484;11.240;2023-04-05T08:24:42;8.50;;;5.00;;
18338;SDS011;9295;44.484;11.240;2023-04-05T08:27:11;21.40;;;5.73;;
18338;SDS011;9295;44.484;11.240;2023-04-05T08:29:40;11.77;;;5.77;;
18338;SDS011;9295;44.484;11.240;2023-04-05T08:32:08;9.30;;;5.47;;
18338;SDS011;9295;44.484;11.240;2023-04-05T08:34:37;7.20;;;5.20;;
18338;SDS011;9295;44.484;11.240;2023-04-05T08:37:05;9.50;;;4.77;;
18338;SDS011;9295;44.484;11.240;2023-04-05T08:39:34;9.93;;;4.87;;
18338;SDS011;9295;44.484;11.240;2023-04-05T08:42:02;8.23;;;4.77;;
18338;SDS011;9295;44.484;11.240;2023-04-05T08:44:44;39.03;;;6.40;;
18338;SDS011;9295;44.484;11.240;2023-04-05T08:47:18;7.80;;;5.70;;
18338;SDS011;9295;44.484;11.240;2023-04-05T08:49:47;12.73;;;6.37;;
18338;SDS011;9295;44.484;11.240;2023-04-05T08:52:16;11.50;;;5.60;;
18338;SDS011;9295;44.484;11.240;2023-04-05T08:54:45;17.03;;;5.93;;
18338;SDS011;9295;44.484;11.240;2023-04-05T08:57:16;16.07;;;5.80;;
18338;SDS011;9295;44.484;11.240;2023-04-05T08:59:47;11.23;;;6.40;;
18338;SDS011;9295;44.484;11.240;2023-04-05T09:02:16;15.53;;;6.13;;
18338;SDS011;9295;44.484;11.240;2023-04-05T09:04:46;11.97;;;6.10;;
18338;SDS011;9295;44.484;11.240;2023-04-05T09:07:16;12.30;;;5.73;;
18338;SDS011;9295;44.484;11.240;2023-04-05T09:09:45;10.90;;;6.37;;
18338;SDS011;9295;44.484;11.240;2023-04-05T09:12:16;11.40;;;6.30;;
18338;SDS011;9295;44.484;11.240;2023-04-05T09:14:49;10.70;;;6.03;;
18338;SDS011;9295;44.484;11.240;2023-04-05T09:17:18;11.73;;;6.23;;
18338;SDS011;9295;44.484;11.240;2023-04-05T09:19:47;12.43;;;6.60;;
18338;SDS011;9295;44.484;11.240;2023-04-05T09:22:16;12.17;;;6.37;;
18338;SDS011;9295;44.484;11.240;2023-04-05T09:24:45;12.40;;;6.00;;
18338;SDS011;9295;44.484;11.240;2023-04-05T09:27:18;11.83;;;4.97;;
18338;SDS011;9295;44.484;11.240;2023-04-05T09:29:55;12.60;;;5.70;;
18338;SDS011;9295;44.484;11.240;2023-04-05T09:32:24;13.20;;;5.67;;
18338;SDS011;9295;44.484;11.240;2023-04-05T09:34:57;17.13;;;6.27;;
18338;SDS011;9295;44.484;11.240;2023-04-05T09:37:31;10.93;;;6.10;;
18338;SDS011;9295;44.484;11.240;2023-04-05T09:40:00;22.83;;;5.77;;
18338;SDS011;9295;44.484;11.240;2023-04-05T09:42:33;8.17;;;5.53;;
18338;SDS011;9295;44.484;11.240;2023-04-05T09:45:13;12.73;;;5.00;;
18338;SDS011;9295;44.484;11.240;2023-04-05T09:47:52;13.53;;;5.00;;
18338;SDS011;9295;44.484;11.240;2023-04-05T09:50:22;14.37;;;6.17;;
18338;SDS011;9295;44.484;11.240;2023-04-05T09:53:02;12.43;;;5.97;;
18338;SDS011;9295;44.484;11.240;2023-04-05T09:55:33;19.10;;;5.27;;
18338;SDS011;9295;44.484;11.240;2023-04-05T09:58:02;13.90;;;6.13;;
18338;SDS011;9295;44.484;11.240;2023-04-05T10:00:32;10.50;;;6.17;;
18338;SDS011;9295;44.484;11.240;2023-04-05T10:03:05;9.03;;;6.00;;
18338;SDS011;9295;44.484;11.240;2023-04-05T10:05:34;9.57;;;6.20;;
18338;SDS011;9295;44.484;11.240;2023-04-05T10:08:02;9.63;;;4.97;;
18338;SDS011;9295;44.484;11.240;2023-04-05T10:10:32;10.70;;;6.00;;
18338;SDS011;9295;44.484;11.240;2023-04-05T10:13:13;9.97;;;4.93;;
18338;SDS011;9295;44.484;11.240;2023-04-05T10:15:44;9.97;;;5.00;;
18338;SDS011;9295;44.484;11.240;2023-04-05T10:18:14;10.13;;;5.60;;
18338;SDS011;9295;44.484;11.240;2023-04-05T10:20:48;11.00;;;5.57;;
18338;SDS011;9295;44.484;11.240;2023-04-05T10:23:20;8.90;;;5.40;;
18338;SDS011;9295;44.484;11.240;2023-04-05T10:25:54;9.70;;;5.13;;
18338;SDS011;9295;44.484;11.240;2023-04-05T10:28:31;11.40;;;4.90;;
18338;SDS011;9295;44.484;11.240;2023-04-05T10:31:10;7.63;;;4.80;;
18338;SDS011;9295;44.484;11.240;2023-04-05T10:34:03;8.73;;;5.17;;
18338;SDS011;9295;44.484;11.240;2023-04-05T10:36:34;10.90;;;5.53;;
18338;SDS011;9295;44.484;11.240;2023-04-05T10:39:11;9.97;;;5.40;;
18338;SDS011;9295;44.484;11.240;2023-04-05T10:41:47;10.70;;;5.57;;
18338;SDS011;9295;44.484;11.240;2023-04-05T10:44:19;10.50;;;5.20;;
18338;SDS011;9295;44.484;11.240;2023-04-05T10:46:53;12.97;;;5.90;;
18338;SDS011;9295;44.484;11.240;2023-04-05T10:49:28;7.63;;;4.73;;
18338;SDS011;9295;44.484;11.240;2023-04-05T10:52:01;7.93;;;5.00;;
18338;SDS011;9295;44.484;11.240;2023-04-05T10:54:31;7.53;;;4.70;;
18338;SDS011;9295;44.484;11.240;2023-04-05T10:57:03;11.37;;;5.30;;
18338;SDS011;9295;44.484;11.240;2023-04-05T10:59:39;13.00;;;5.80;;
18338;SDS011;9295;44.484;11.240;2023-04-05T11:02:11;10.10;;;5.63;;
18338;SDS011;9295;44.484;11.240;2023-04-05T11:04:41;9.30;;;5.57;;
18338;SDS011;9295;44.484;11.240;2023-04-05T11:07:10;7.10;;;4.70;;
18338;SDS011;9295;44.484;11.240;2023-04-05T11:09:49;8.07;;;5.20;;
18338;SDS011;9295;44.484;11.240;2023-04-05T11:15:27;12.73;;;5.37;;
18338;SDS011;9295;44.484;11.240;2023-04-05T11:18:02;4.57;;;3.50;;
18338;SDS011;9295;44.484;11.240;2023-04-05T11:20:38;7.67;;;4.07;;
18338;SDS011;9295;44.484;11.240;2023-04-05T11:23:11;5.83;;;3.87;;
18338;SDS011;9295;44.484;11.240;2023-04-05T11:25:44;7.60;;;4.03;;
18338;SDS011;9295;44.484;11.240;2023-04-05T11:28:24;6.27;;;3.60;;
18338;SDS011;9295;44.484;11.240;2023-04-05T11:30:56;7.00;;;4.40;;
18338;SDS011;9295;44.484;11.240;2023-04-05T11:33:52;7.30;;;4.27;;
18338;SDS011;9295;44.484;11.240;2023-04-05T11:36:30;8.47;;;4.43;;
18338;SDS011;9295;44.484;11.240;2023-04-05T11:39:22;7.87;;;4.13;;
18338;SDS011;9295;44.484;11.240;2023-04-05T11:41:56;6.23;;;4.00;;
18338;SDS011;9295;44.484;11.240;2023-04-05T11:44:29;6.43;;;4.40;;
18338;SDS011;9295;44.484;11.240;2023-04-05T11:47:10;6.53;;;4.00;;
18338;SDS011;9295;44.484;11.240;2023-04-05T11:49:40;15.03;;;4.07;;
18338;SDS011;9295;44.484;11.240;2023-04-05T11:52:09;7.53;;;3.83;;
18338;SDS011;9295;44.484;11.240;2023-04-05T11:54:39;4.70;;;3.27;;
18338;SDS011;9295;44.484;11.240;2023-04-05T11:57:12;5.73;;;3.37;;
18338;SDS011;9295;44.484;11.240;2023-04-05T11:59:43;7.63;;;4.30;;
18338;SDS011;9295;44.484;11.240;2023-04-05T12:02:11;5.80;;;3.40;;
18338;SDS011;9295;44.484;11.240;2023-04-05T12:04:41;7.30;;;3.93;;
18338;SDS011;9295;44.484;11.240;2023-04-05T12:07:09;5.17;;;3.67;;
18338;SDS011;9295;44.484;11.240;2023-04-05T12:09:58;6.80;;;4.30;;
18338;SDS011;9295;44.484;11.240;2023-04-05T12:12:32;7.90;;;3.90;;
18338;SDS011;9295;44.484;11.240;2023-04-05T12:15:06;6.37;;;3.83;;
18338;SDS011;9295;44.484;11.240;2023-04-05T12:17:41;6.67;;;3.53;;
18338;SDS011;9295;44.484;11.240;2023-04-05T12:20:13;5.60;;;3.00;;
18338;SDS011;9295;44.484;11.240;2023-04-05T12:22:43;7.67;;;3.73;;
18338;SDS011;9295;44.484;11.240;2023-04-05T12:25:14;10.17;;;4.17;;
18338;SDS011;9295;44.484;11.240;2023-04-05T12:27:43;9.80;;;3.80;;
18338;SDS011;9295;44.484;11.240;2023-04-05T12:30:13;5.67;;;3.90;;
18338;SDS011;9295;44.484;11.240;2023-04-05T12:32:46;10.47;;;4.03;;
18338;SDS011;9295;44.484;11.240;2023-04-05T12:35:18;8.57;;;4.20;;
18338;SDS011;9295;44.484;11.240;2023-04-05T12:37:49;6.87;;;4.23;;
18338;SDS011;9295;44.484;11.240;2023-04-05T12:40:19;6.30;;;3.50;;
18338;SDS011;9295;44.484;11.240;2023-04-05T12:42:49;5.33;;;3.47;;
18338;SDS011;9295;44.484;11.240;2023-04-05T12:45:18;6.70;;;4.17;;
18338;SDS011;9295;44.484;11.240;2023-04-05T12:47:54;7.60;;;4.57;;
18338;SDS011;9295;44.484;11.240;2023-04-05T12:50:26;7.13;;;4.40;;
18338;SDS011;9295;44.484;11.240;2023-04-05T12:52:56;5.80;;;3.93;;
18338;SDS011;9295;44.484;11.240;2023-04-05T12:55:26;7.00;;;3.87;;
18338;SDS011;9295;44.484;11.240;2023-04-05T12:57:56;6.00;;;3.70;;
18338;SDS011;9295;44.484;11.240;2023-04-05T13:00:27;8.03;;;4.00;;
18338;SDS011;9295;44.484;11.240;2023-04-05T13:02:57;14.03;;;3.60;;
18338;SDS011;9295;44.484;11.240;2023-04-05T13:05:28;5.87;;;3.60;;
18338;SDS011;9295;44.484;11.240;2023-04-05T13:07:57;10.00;;;4.10;;
18338;SDS011;9295;44.484;11.240;2023-04-05T13:10:25;6.57;;;4.27;;
18338;SDS011;9295;44.484;11.240;2023-04-05T13:12:54;12.00;;;3.97;;
18338;SDS011;9295;44.484;11.240;2023-04-05T13:15:22;8.80;;;3.60;;
18338;SDS011;9295;44.484;11.240;2023-04-05T13:17:50;6.50;;;3.10;;
18338;SDS011;9295;44.484;11.240;2023-04-05T13:20:20;5.97;;;3.57;;
18338;SDS011;9295;44.484;11.240;2023-04-05T13:22:50;4.30;;;2.93;;
18338;SDS011;9295;44.484;11.240;2023-04-05T13:25:18;5.17;;;3.30;;
18338;SDS011;9295;44.484;11.240;2023-04-05T13:27:47;11.50;;;3.63;;
18338;SDS011;9295;44.484;11.240;2023-04-05T13:30:15;6.50;;;3.17;;
18338;SDS011;9295;44.484;11.240;2023-04-05T13:32:47;7.53;;;3.40;;
18338;SDS011;9295;44.484;11.240;2023-04-05T13:35:15;5.40;;;3.20;;
18338;SDS011;9295;44.484;11.240;2023-04-05T13:37:43;4.70;;;2.97;;
18338;SDS011;9295;44.484;11.240;2023-04-05T13:40:13;9.63;;;3.50;;
18338;SDS011;9295;44.484;11.240;2023-04-05T13:42:42;5.30;;;3.10;;
18338;SDS011;9295;44.484;11.240;2023-04-05T13:45:10;5.20;;;3.33;;
18338;SDS011;9295;44.484;11.240;2023-04-05T13:47:39;6.70;;;3.50;;
18338;SDS011;9295;44.484;11.240;2023-04-05T13:50:08;5.27;;;3.30;;
18338;SDS011;9295;44.484;11.240;2023-04-05T13:52:36;3.97;;;3.17;;
18338;SDS011;9295;44.484;11.240;2023-04-05T13:55:05;5.80;;;2.70;;
18338;SDS011;9295;44.484;11.240;2023-04-05T13:57:35;4.60;;;3.20;;
18338;SDS011;9295;44.484;11.240;2023-04-05T14:00:04;9.40;;;3.23;;
18338;SDS011;9295;44.484;11.240;2023-04-05T14:02:39;5.67;;;3.07;;
18338;SDS011;9295;44.484;11.240;2023-04-05T14:05:08;12.53;;;3.43;;
18338;SDS011;9295;44.484;11.240;2023-04-05T14:07:37;4.17;;;2.87;;
18338;SDS011;9295;44.484;11.240;2023-04-05T14:10:05;6.00;;;3.40;;
18338;SDS011;9295;44.484;11.240;2023-04-05T14:12:36;4.50;;;2.73;;
18338;SDS011;9295;44.484;11.240;2023-04-05T14:15:05;9.23;;;3.30;;
18338;SDS011;9295;44.484;11.240;2023-04-05T14:17:34;6.57;;;2.50;;
18338;SDS011;9295;44.484;11.240;2023-04-05T14:20:03;8.80;;;3.30;;
18338;SDS011;9295;44.484;11.240;2023-04-05T14:22:32;6.30;;;3.13;;
18338;SDS011;9295;44.484;11.240;2023-04-05T14:25:00;8.63;;;3.70;;
18338;SDS011;9295;44.484;11.240;2023-04-05T14:27:30;7.93;;;3.90;;
18338;SDS011;9295;44.484;11.240;2023-04-05T14:30:00;9.20;;;3.17;;
18338;SDS011;9295;44.484;11.240;2023-04-05T14:32:28;7.73;;;2.77;;
18338;SDS011;9295;44.484;11.240;2023-04-05T14:34:59;5.30;;;3.30;;
18338;SDS011;9295;44.484;11.240;2023-04-05T14:37:28;11.50;;;3.17;;
18338;SDS011;9295;44.484;11.240;2023-04-05T14:39:56;5.00;;;3.20;;
18338;SDS011;9295;44.484;11.240;2023-04-05T14:42:24;5.20;;;3.30;;
18338;SDS011;9295;44.484;11.240;2023-04-05T14:45:12;8.63;;;4.27;;
18338;SDS011;9295;44.484;11.240;2023-04-05T14:47:40;6.97;;;3.43;;
18338;SDS011;9295;44.484;11.240;2023-04-05T14:50:09;6.93;;;3.77;;
18338;SDS011;9295;44.484;11.240;2023-04-05T14:52:38;5.30;;;3.60;;
18338;SDS011;9295;44.484;11.240;2023-04-05T14:55:07;6.40;;;3.33;;
18338;SDS011;9295;44.484;11.240;2023-04-05T14:57:38;5.20;;;3.13;;
18338;SDS011;9295;44.484;11.240;2023-04-05T15:00:07;4.77;;;3.33;;
18338;SDS011;9295;44.484;11.240;2023-04-05T15:02:38;3.80;;;2.70;;
18338;SDS011;9295;44.484;11.240;2023-04-05T15:05:08;5.73;;;3.03;;
18338;SDS011;9295;44.484;11.240;2023-04-05T15:07:36;4.77;;;3.00;;
18338;SDS011;9295;44.484;11.240;2023-04-05T15:10:05;5.77;;;2.63;;
18338;SDS011;9295;44.484;11.240;2023-04-05T15:12:34;4.30;;;2.50;;